sensor_id;sensor_type;location;lat;lon;timestamp;pressure;altitude;pressure_sealevel;temperature;humidity
9523;BME280;63165;43.016;25.784;2023-02-01T00:00:37;100147.13;;;3.81;84.25
9523;BME280;63165;43.016;25.784;2023-02-01T00:03:04;100150.59;;;3.83;84.20
9523;BME280;63165;43.016;25.784;2023-02-01T00:05:34;100134.19;;;3.81;83.91
9523;BME280;63165;43.016;25.784;2023-02-01T00:08:01;100144.56;;;3.82;83.96
9523;BME280;63165;43.016;25.784;2023-02-01T00:10:30;100135.94;;;3.82;84.16
9523;BME280;63165;43.016;25.784;2023-02-01T00:12:57;100139.34;;;3.81;84.37
9523;BME280;63165;43.016;25.784;2023-02-01T00:15:34;100145.41;;;3.83;83.98
9523;BME280;63165;43.016;25.784;2023-02-01T00:18:01;100135.94;;;3.82;84.06
9523;BME280;63165;43.016;25.784;2023-02-01T00:20:28;100143.72;;;3.85;84.13
9523;BME280;63165;43.016;25.784;2023-02-01T00:22:56;100136.84;;;3.85;84.06
9523;BME280;63165;43.016;25.784;2023-02-01T00:25:23;100139.41;;;3.87;84.15
9523;BME280;63165;43.016;25.784;2023-02-01T00:27:52;100149.78;;;3.85;84.10
9523;BME280;63165;43.016;25.784;2023-02-01T00:30:19;100141.13;;;3.85;83.92
9523;BME280;63165;43.016;25.784;2023-02-01T00:32:47;100141.13;;;3.85;83.98
9523;BME280;63165;43.016;25.784;2023-02-01T00:35:15;100135.97;;;3.86;84.26
9523;BME280;63165;43.016;25.784;2023-02-01T00:37:42;100134.25;;;3.85;83.80
9523;BME280;63165;43.016;25.784;2023-02-01T00:40:10;100135.94;;;3.82;84.02
9523;BME280;63165;43.016;25.784;2023-02-01T00:42:37;100138.50;;;3.83;83.95
9523;BME280;63165;43.016;25.784;2023-02-01T00:45:08;100143.66;;;3.80;84.37
9523;BME280;63165;43.016;25.784;2023-02-01T00:47:36;100146.25;;;3.80;84.36
9523;BME280;63165;43.016;25.784;2023-02-01T00:50:03;100131.56;;;3.76;84.60
9523;BME280;63165;43.016;25.784;2023-02-01T00:52:31;100141.91;;;3.78;84.55
9523;BME280;63165;43.016;25.784;2023-02-01T00:54:58;100146.19;;;3.76;84.29
9523;BME280;63165;43.016;25.784;2023-02-01T00:57:26;100146.16;;;3.73;84.79
9523;BME280;63165;43.016;25.784;2023-02-01T00:59:53;100141.81;;;3.70;84.81
9523;BME280;63165;43.016;25.784;2023-02-01T01:02:22;100141.81;;;3.68;84.84
9523;BME280;63165;43.016;25.784;2023-02-01T01:04:49;100132.28;;;3.67;85.12
9523;BME280;63165;43.016;25.784;2023-02-01T01:07:17;100139.22;;;3.68;85.07
9523;BME280;63165;43.016;25.784;2023-02-01T01:09:44;100130.59;;;3.69;85.01
9523;BME280;63165;43.016;25.784;2023-02-01T01:12:11;100134.91;;;3.72;84.95
9523;BME280;63165;43.016;25.784;2023-02-01T01:14:38;100133.19;;;3.71;84.89
9523;BME280;63165;43.016;25.784;2023-02-01T01:17:06;100128.88;;;3.70;85.12
9523;BME280;63165;43.016;25.784;2023-02-01T01:19:35;100124.56;;;3.72;84.82
9523;BME280;63165;43.016;25.784;2023-02-01T01:22:02;100128.88;;;3.72;84.82
9523;BME280;63165;43.016;25.784;2023-02-01T01:24:29;100132.34;;;3.72;84.54
9523;BME280;63165;43.016;25.784;2023-02-01T01:26:57;100130.63;;;3.73;84.84
9523;BME280;63165;43.016;25.784;2023-02-01T01:29:24;100134.97;;;3.75;84.51
9523;BME280;63165;43.016;25.784;2023-02-01T01:31:52;100143.59;;;3.74;84.27
9523;BME280;63165;43.016;25.784;2023-02-01T01:34:19;100135.84;;;3.76;84.26
9523;BME280;63165;43.016;25.784;2023-02-01T01:36:48;100135.84;;;3.74;84.28
9523;BME280;63165;43.016;25.784;2023-02-01T01:39:15;100139.31;;;3.78;84.29
9523;BME280;63165;43.016;25.784;2023-02-01T01:41:42;100135.88;;;3.79;84.27
9523;BME280;63165;43.016;25.784;2023-02-01T01:47:10;100141.09;;;3.83;84.27
9523;BME280;63165;43.016;25.784;2023-02-01T01:49:37;100144.56;;;3.82;84.07
9523;BME280;63165;43.016;25.784;2023-02-01T02:02:13;100161.03;;;3.87;83.94
9523;BME280;63165;43.016;25.784;2023-02-01T02:04:46;100137.59;;;3.77;84.00
9523;BME280;63165;43.016;25.784;2023-02-01T02:07:30;100165.34;;;3.90;83.80
9523;BME280;63165;43.016;25.784;2023-02-01T02:10:12;100150.59;;;3.83;83.71
9523;BME280;63165;43.016;25.784;2023-02-01T02:49:54;100175.47;;;3.72;86.79
9523;BME280;63165;43.016;25.784;2023-02-01T02:56:26;100153.81;;;3.63;86.48
9523;BME280;63165;43.016;25.784;2023-02-01T02:59:47;100165.06;;;3.67;86.02
9523;BME280;63165;43.016;25.784;2023-02-01T03:22:38;100177.03;;;3.60;83.99
9523;BME280;63165;43.016;25.784;2023-02-01T03:25:50;100171.25;;;3.78;83.77
9523;BME280;63165;43.016;25.784;2023-02-01T03:28:29;100139.88;;;3.55;83.58
9523;BME280;63165;43.016;25.784;2023-02-01T03:40:37;100184.34;;;3.92;82.47
9523;BME280;63165;43.016;25.784;2023-02-01T03:46:28;100167.00;;;3.82;82.87
9523;BME280;63165;43.016;25.784;2023-02-01T03:49:23;100185.13;;;3.85;82.86
9523;BME280;63165;43.016;25.784;2023-02-01T04:28:25;100205.59;;;3.65;83.32
9523;BME280;63165;43.016;25.784;2023-02-01T04:31:26;100207.25;;;3.61;82.97
9523;BME280;63165;43.016;25.784;2023-02-01T04:37:50;100212.25;;;3.49;83.89
9523;BME280;63165;43.016;25.784;2023-02-01T05:12:15;100220.56;;;3.31;83.45
9523;BME280;63165;43.016;25.784;2023-02-01T05:15:23;100210.91;;;3.19;83.51
9523;BME280;63165;43.016;25.784;2023-02-01T05:19:13;100213.53;;;3.21;83.63
9523;BME280;63165;43.016;25.784;2023-02-01T05:22:56;100217.78;;;3.17;83.29
9523;BME280;63165;43.016;25.784;2023-02-01T05:59:29;100242.19;;;2.83;83.15
9523;BME280;63165;43.016;25.784;2023-02-01T06:02:56;100237.78;;;2.77;83.26
9523;BME280;63165;43.016;25.784;2023-02-01T06:06:23;100237.66;;;2.71;83.24
9523;BME280;63165;43.016;25.784;2023-02-01T06:09:33;100241.91;;;2.66;83.17
9523;BME280;63165;43.016;25.784;2023-02-01T06:12:33;100247.81;;;2.62;83.08
9523;BME280;63165;43.016;25.784;2023-02-01T06:16:04;100247.78;;;2.59;83.40
9523;BME280;63165;43.016;25.784;2023-02-01T06:22:37;100252.88;;;2.56;83.67
9523;BME280;63165;43.016;25.784;2023-02-01T06:25:36;100249.47;;;2.57;83.93
9523;BME280;63165;43.016;25.784;2023-02-01T06:41:35;100260.31;;;2.84;83.25
9523;BME280;63165;43.016;25.784;2023-02-01T06:44:44;100255.16;;;2.84;82.35
9523;BME280;63165;43.016;25.784;2023-02-01T06:48:06;100274.34;;;2.99;82.19
9523;BME280;63165;43.016;25.784;2023-02-01T06:51:29;100269.28;;;3.03;81.94
9523;BME280;63165;43.016;25.784;2023-02-01T06:54:19;100267.63;;;3.07;81.66
9523;BME280;63165;43.016;25.784;2023-02-01T07:06:58;100277.44;;;3.28;80.92
9523;BME280;63165;43.016;25.784;2023-02-01T07:12:59;100274.88;;;3.31;80.83
9523;BME280;63165;43.016;25.784;2023-02-01T07:15:57;100271.16;;;3.14;80.80
9523;BME280;63165;43.016;25.784;2023-02-01T07:19:16;100264.38;;;3.20;80.78
9523;BME280;63165;43.016;25.784;2023-02-01T07:22:38;100273.88;;;3.21;80.84
9523;BME280;63165;43.016;25.784;2023-02-01T07:25:52;100279.97;;;3.25;81.10
9523;BME280;63165;43.016;25.784;2023-02-01T07:29:33;100281.75;;;3.29;81.61
9523;BME280;63165;43.016;25.784;2023-02-01T07:32:43;100283.56;;;3.35;81.40
9523;BME280;63165;43.016;25.784;2023-02-01T07:35:48;100265.31;;;3.24;81.61
9523;BME280;63165;43.016;25.784;2023-02-01T07:38:58;100287.81;;;3.29;82.32
9523;BME280;63165;43.016;25.784;2023-02-01T07:45:16;100294.00;;;3.39;82.60
9523;BME280;63165;43.016;25.784;2023-02-01T07:47:56;100299.22;;;3.42;82.45
9523;BME280;63165;43.016;25.784;2023-02-01T07:51:08;100290.66;;;3.46;82.39
9523;BME280;63165;43.016;25.784;2023-02-01T07:57:01;100289.88;;;3.50;81.86
9523;BME280;63165;43.016;25.784;2023-02-01T07:59:53;100286.56;;;3.59;81.75
9523;BME280;63165;43.016;25.784;2023-02-01T08:03:10;100289.22;;;3.64;82.00
9523;BME280;63165;43.016;25.784;2023-02-01T08:06:10;100291.88;;;3.68;81.68
9523;BME280;63165;43.016;25.784;2023-02-01T08:08:49;100280.72;;;3.73;81.55
9523;BME280;63165;43.016;25.784;2023-02-01T08:11:32;100256.47;;;3.66;81.65
9523;BME280;63165;43.016;25.784;2023-02-01T08:14:21;100277.38;;;3.81;81.28
9523;BME280;63165;43.016;25.784;2023-02-01T08:17:05;100267.13;;;3.86;81.36
9523;BME280;63165;43.016;25.784;2023-02-01T08:19:52;100282.63;;;3.84;81.03
9523;BME280;63165;43.016;25.784;2023-02-01T08:22:40;100241.13;;;3.78;80.82
9523;BME280;63165;43.016;25.784;2023-02-01T08:25:27;100258.47;;;3.87;80.89
9523;BME280;63165;43.016;25.784;2023-02-01T08:28:13;100282.81;;;4.00;80.76
9523;BME280;63165;43.016;25.784;2023-02-01T08:31:10;100268.06;;;3.91;80.81
9523;BME280;63165;43.016;25.784;2023-02-01T08:33:51;100280.34;;;4.09;80.78
9523;BME280;63165;43.016;25.784;2023-02-01T08:36:28;100269.88;;;4.00;80.65
9523;BME280;63165;43.016;25.784;2023-02-01T08:39:14;100283.00;;;4.12;80.56
9523;BME280;63165;43.016;25.784;2023-02-01T08:42:06;100291.75;;;4.22;80.23
9523;BME280;63165;43.016;25.784;2023-02-01T08:45:00;100282.25;;;4.21;79.73
9523;BME280;63165;43.016;25.784;2023-02-01T08:47:57;100282.25;;;4.22;80.04
9523;BME280;63165;43.016;25.784;2023-02-01T08:50:40;100294.50;;;4.33;80.01
9523;BME280;63165;43.016;25.784;2023-02-01T08:53:12;100291.91;;;4.36;80.29
9523;BME280;63165;43.016;25.784;2023-02-01T08:55:50;100268.69;;;4.42;79.42
9523;BME280;63165;43.016;25.784;2023-02-01T08:58:30;100284.41;;;4.57;79.28
9523;BME280;63165;43.016;25.784;2023-02-01T09:01:03;100285.34;;;4.65;79.31
9523;BME280;63165;43.016;25.784;2023-02-01T09:03:39;100280.31;;;4.78;79.17
9523;BME280;63165;43.016;25.784;2023-02-01T09:06:16;100267.47;;;4.89;79.12
9523;BME280;63165;43.016;25.784;2023-02-01T09:08:47;100279.66;;;4.97;78.82
9523;BME280;63165;43.016;25.784;2023-02-01T09:11:20;100259.00;;;5.06;78.16
9523;BME280;63165;43.016;25.784;2023-02-01T09:14:01;100263.34;;;5.12;78.01
9523;BME280;63165;43.016;25.784;2023-02-01T09:16:29;100254.69;;;5.10;78.11
9523;BME280;63165;43.016;25.784;2023-02-01T09:19:02;100260.03;;;5.27;77.29
9523;BME280;63165;43.016;25.784;2023-02-01T09:21:33;100267.13;;;5.48;76.81
9523;BME280;63165;43.016;25.784;2023-02-01T09:24:04;100248.13;;;5.52;77.51
9523;BME280;63165;43.016;25.784;2023-02-01T09:26:41;100230.91;;;5.63;76.95
9523;BME280;63165;43.016;25.784;2023-02-01T09:29:12;100263.06;;;5.90;76.67
9523;BME280;63165;43.016;25.784;2023-02-01T09:31:51;100222.34;;;5.81;76.30
9523;BME280;63165;43.016;25.784;2023-02-01T09:34:26;100248.47;;;6.08;75.09
9523;BME280;63165;43.016;25.784;2023-02-01T09:37:00;100262.34;;;6.13;74.88
9523;BME280;63165;43.016;25.784;2023-02-01T09:39:31;100250.28;;;6.22;74.02
9523;BME280;63165;43.016;25.784;2023-02-01T09:42:04;100238.16;;;6.26;73.67
9523;BME280;63165;43.016;25.784;2023-02-01T09:45:06;100258.13;;;6.33;73.07
9523;BME280;63165;43.016;25.784;2023-02-01T09:47:44;100245.13;;;6.35;73.31
9523;BME280;63165;43.016;25.784;2023-02-01T09:50:27;100238.22;;;6.45;72.71
9523;BME280;63165;43.016;25.784;2023-02-01T09:53:02;100237.41;;;6.53;72.41
9523;BME280;63165;43.016;25.784;2023-02-01T09:55:39;100218.34;;;6.57;71.58
9523;BME280;63165;43.016;25.784;2023-02-01T09:58:22;100223.56;;;6.67;70.46
9523;BME280;63165;43.016;25.784;2023-02-01T10:01:01;100183.66;;;6.38;70.68
9523;BME280;63165;43.016;25.784;2023-02-01T10:03:40;100211.44;;;6.70;71.11
9523;BME280;63165;43.016;25.784;2023-02-01T10:06:31;100215.78;;;6.84;69.81
9523;BME280;63165;43.016;25.784;2023-02-01T10:09:20;100206.25;;;6.87;70.13
9523;BME280;63165;43.016;25.784;2023-02-01T10:12:04;100188.06;;;6.95;70.14
9523;BME280;63165;43.016;25.784;2023-02-01T10:14:57;100182.84;;;6.95;69.04
9523;BME280;63165;43.016;25.784;2023-02-01T10:17:50;100187.19;;;6.99;68.99
9523;BME280;63165;43.016;25.784;2023-02-01T10:20:27;100175.94;;;7.02;69.24
9523;BME280;63165;43.016;25.784;2023-02-01T10:23:12;100175.91;;;6.97;68.61
9523;BME280;63165;43.016;25.784;2023-02-01T10:26:05;100184.59;;;7.07;68.64
9523;BME280;63165;43.016;25.784;2023-02-01T10:28:49;100167.25;;;7.10;68.54
9523;BME280;63165;43.016;25.784;2023-02-01T10:31:24;100145.56;;;7.16;68.28
9523;BME280;63165;43.016;25.784;2023-02-01T10:34:06;100112.59;;;7.09;67.74
9523;BME280;63165;43.016;25.784;2023-02-01T10:36:42;100162.00;;;7.36;67.52
9523;BME280;63165;43.016;25.784;2023-02-01T10:39:28;100123.84;;;7.34;67.86
9523;BME280;63165;43.016;25.784;2023-02-01T10:41:59;100131.59;;;7.48;67.56
9523;BME280;63165;43.016;25.784;2023-02-01T10:44:40;100128.16;;;7.52;67.19
9523;BME280;63165;43.016;25.784;2023-02-01T10:47:15;100121.16;;;7.58;66.25
9523;BME280;63165;43.016;25.784;2023-02-01T10:49:54;100115.09;;;7.56;66.48
9523;BME280;63165;43.016;25.784;2023-02-01T10:52:35;100083.06;;;7.39;67.20
9523;BME280;63165;43.016;25.784;2023-02-01T10:55:37;100113.28;;;7.74;65.26
9523;BME280;63165;43.016;25.784;2023-02-01T10:58:17;100018.84;;;7.35;64.82
9523;BME280;63165;43.016;25.784;2023-02-01T11:00:59;100104.53;;;7.92;64.90
9523;BME280;63165;43.016;25.784;2023-02-01T11:03:39;100099.28;;;8.00;64.88
9523;BME280;63165;43.016;25.784;2023-02-01T11:06:17;100062.88;;;7.90;65.19
9523;BME280;63165;43.016;25.784;2023-02-01T11:08:47;100055.00;;;8.01;66.19
9523;BME280;63165;43.016;25.784;2023-02-01T11:11:17;100099.94;;;8.39;65.62
9523;BME280;63165;43.016;25.784;2023-02-01T11:13:54;100080.72;;;8.52;64.59
9523;BME280;63165;43.016;25.784;2023-02-01T11:16:29;100044.22;;;8.53;63.37
9523;BME280;63165;43.016;25.784;2023-02-01T11:18:58;100086.66;;;8.72;62.75
9523;BME280;63165;43.016;25.784;2023-02-01T11:21:26;100081.38;;;8.79;61.39
9523;BME280;63165;43.016;25.784;2023-02-01T11:23:55;100077.06;;;8.74;60.68
9523;BME280;63165;43.016;25.784;2023-02-01T11:26:27;100087.44;;;8.82;59.61
9523;BME280;63165;43.016;25.784;2023-02-01T11:29:03;100068.34;;;8.79;59.37
9523;BME280;63165;43.016;25.784;2023-02-01T11:31:33;100036.34;;;8.60;59.02
9523;BME280;63165;43.016;25.784;2023-02-01T11:34:06;100068.38;;;8.76;59.11
9523;BME280;63165;43.016;25.784;2023-02-01T11:36:36;100061.41;;;8.76;59.17
9523;BME280;63165;43.016;25.784;2023-02-01T11:39:25;100062.28;;;8.75;58.84
9523;BME280;63165;43.016;25.784;2023-02-01T11:42:04;100068.38;;;8.76;59.00
9523;BME280;63165;43.016;25.784;2023-02-01T11:44:35;100064.00;;;8.79;59.40
9523;BME280;63165;43.016;25.784;2023-02-01T11:47:27;100052.69;;;8.79;58.87
9523;BME280;63165;43.016;25.784;2023-02-01T11:49:57;100047.53;;;8.69;59.29
9523;BME280;63165;43.016;25.784;2023-02-01T11:52:49;100064.84;;;8.80;58.78
9523;BME280;63165;43.016;25.784;2023-02-01T11:55:37;100046.69;;;8.70;59.41
9523;BME280;63165;43.016;25.784;2023-02-01T11:58:20;100040.56;;;8.74;59.23
9523;BME280;63165;43.016;25.784;2023-02-01T12:00:59;100046.53;;;8.83;59.17
9523;BME280;63165;43.016;25.784;2023-02-01T12:06:45;100030.88;;;8.87;58.69
9523;BME280;63165;43.016;25.784;2023-02-01T12:09:45;100004.84;;;8.80;57.74
9523;BME280;63165;43.016;25.784;2023-02-01T12:12:25;100021.25;;;8.91;58.37
9523;BME280;63165;43.016;25.784;2023-02-01T12:15:21;100020.41;;;8.89;57.67
9523;BME280;63165;43.016;25.784;2023-02-01T12:21:06;100004.03;;;8.76;58.05
9523;BME280;63165;43.016;25.784;2023-02-01T12:24:07;100050.75;;;8.98;56.99
9523;BME280;63165;43.016;25.784;2023-02-01T12:26:58;100026.63;;;8.76;57.80
9523;BME280;63165;43.016;25.784;2023-02-01T12:29:45;100022.13;;;8.90;58.35
9523;BME280;63165;43.016;25.784;2023-02-01T12:32:25;100043.91;;;8.89;58.40
9523;BME280;63165;43.016;25.784;2023-02-01T12:35:13;100037.78;;;8.91;58.49
9523;BME280;63165;43.016;25.784;2023-02-01T12:37:57;100024.75;;;8.90;58.64
9523;BME280;63165;43.016;25.784;2023-02-01T12:40:42;100011.66;;;8.94;58.21
9523;BME280;63165;43.016;25.784;2023-02-01T12:43:15;100022.03;;;8.98;58.12
9523;BME280;63165;43.016;25.784;2023-02-01T12:45:53;100018.56;;;9.00;57.75
9523;BME280;63165;43.016;25.784;2023-02-01T12:48:31;100014.16;;;9.05;58.33
9523;BME280;63165;43.016;25.784;2023-02-01T12:51:06;100016.69;;;9.11;58.19
9523;BME280;63165;43.016;25.784;2023-02-01T12:53:44;100029.66;;;9.18;56.56
9523;BME280;63165;43.016;25.784;2023-02-01T12:56:15;100022.66;;;9.21;57.49
9523;BME280;63165;43.016;25.784;2023-02-01T12:58:47;100026.94;;;9.28;56.69
9523;BME280;63165;43.016;25.784;2023-02-01T13:01:18;99936.97;;;8.83;55.89
9523;BME280;63165;43.016;25.784;2023-02-01T13:03:55;100006.09;;;9.25;55.32
9523;BME280;63165;43.016;25.784;2023-02-01T13:06:29;100042.50;;;9.38;55.65
9523;BME280;63165;43.016;25.784;2023-02-01T13:09:04;99995.63;;;9.27;55.45
9523;BME280;63165;43.016;25.784;2023-02-01T13:11:38;99999.88;;;9.37;54.19
9523;BME280;63165;43.016;25.784;2023-02-01T13:14:13;100031.94;;;9.47;54.43
9523;BME280;63165;43.016;25.784;2023-02-01T13:16:44;99961.81;;;9.16;55.21
9523;BME280;63165;43.016;25.784;2023-02-01T13:19:19;100013.66;;;9.48;55.49
9523;BME280;63165;43.016;25.784;2023-02-01T13:21:51;100015.34;;;9.51;55.40
9523;BME280;63165;43.016;25.784;2023-02-01T13:24:31;99972.13;;;9.25;55.73
9523;BME280;63165;43.016;25.784;2023-02-01T13:27:00;100018.06;;;9.43;55.84
9523;BME280;63165;43.016;25.784;2023-02-01T13:29:29;100055.38;;;9.53;55.69
9523;BME280;63165;43.016;25.784;2023-02-01T13:35:20;100034.56;;;9.47;54.22
9523;BME280;63165;43.016;25.784;2023-02-01T13:38:29;100021.59;;;9.39;54.88
9523;BME280;63165;43.016;25.784;2023-02-01T13:41:13;100039.88;;;9.39;54.92
9523;BME280;63165;43.016;25.784;2023-02-01T13:43:48;100038.97;;;9.42;54.51
9523;BME280;63165;43.016;25.784;2023-02-01T13:46:17;100027.69;;;9.37;54.32
9523;BME280;63165;43.016;25.784;2023-02-01T13:48:48;100012.03;;;9.35;53.82
9523;BME280;63165;43.016;25.784;2023-02-01T13:51:33;100019.81;;;9.41;54.26
9523;BME280;63165;43.016;25.784;2023-02-01T13:54:02;100038.03;;;9.46;54.16
9523;BME280;63165;43.016;25.784;2023-02-01T13:56:39;100028.47;;;9.46;54.37
9523;BME280;63165;43.016;25.784;2023-02-01T13:59:37;100028.47;;;9.46;54.22
9523;BME280;63165;43.016;25.784;2023-02-01T14:02:48;99984.41;;;9.20;54.35
9523;BME280;63165;43.016;25.784;2023-02-01T14:05:56;100023.16;;;9.52;53.30
9523;BME280;63165;43.016;25.784;2023-02-01T14:09:05;99932.47;;;8.97;53.95
9523;BME280;63165;43.016;25.784;2023-02-01T14:11:41;100022.44;;;9.40;53.75
9523;BME280;63165;43.016;25.784;2023-02-01T14:17:40;100014.59;;;9.41;54.05
9523;BME280;63165;43.016;25.784;2023-02-01T14:23:28;100017.97;;;9.48;54.16
9523;BME280;63165;43.016;25.784;2023-02-01T14:26:10;100014.59;;;9.41;54.59
9523;BME280;63165;43.016;25.784;2023-02-01T14:28:45;100025.81;;;9.49;54.82
9523;BME280;63165;43.016;25.784;2023-02-01T14:31:40;100017.13;;;9.47;53.61
9523;BME280;63165;43.016;25.784;2023-02-01T14:34:18;100017.94;;;9.52;53.83
9523;BME280;63165;43.016;25.784;2023-02-01T14:36:51;100011.91;;;9.46;53.88
9523;BME280;63165;43.016;25.784;2023-02-01T14:39:36;99988.59;;;9.32;52.97
9523;BME280;63165;43.016;25.784;2023-02-01T14:42:21;100032.69;;;9.55;53.64
9523;BME280;63165;43.016;25.784;2023-02-01T14:44:50;100023.97;;;9.58;53.17
9523;BME280;63165;43.016;25.784;2023-02-01T14:47:30;100028.53;;;9.40;52.51
9523;BME280;63165;43.016;25.784;2023-02-01T14:50:27;100037.09;;;9.51;52.33
9523;BME280;63165;43.016;25.784;2023-02-01T14:53:18;100034.56;;;9.47;52.77
9523;BME280;63165;43.016;25.784;2023-02-01T14:55:52;100024.34;;;9.28;52.82
9523;BME280;63165;43.016;25.784;2023-02-01T14:58:31;100028.63;;;9.34;52.88
9523;BME280;63165;43.016;25.784;2023-02-01T15:01:01;100034.75;;;9.30;52.67
9523;BME280;63165;43.016;25.784;2023-02-01T15:03:38;100022.75;;;9.13;52.34
9523;BME280;63165;43.016;25.784;2023-02-01T15:06:31;100035.81;;;9.12;52.23
9523;BME280;63165;43.016;25.784;2023-02-01T15:09:02;99989.41;;;8.58;52.43
9523;BME280;63165;43.016;25.784;2023-02-01T15:11:53;100034.41;;;8.79;52.22
9523;BME280;63165;43.016;25.784;2023-02-01T15:14:21;100006.81;;;8.54;52.43
9523;BME280;63165;43.016;25.784;2023-02-01T15:16:49;100050.97;;;8.74;52.80
9523;BME280;63165;43.016;25.784;2023-02-01T15:19:20;100048.38;;;8.73;53.23
9523;BME280;63165;43.016;25.784;2023-02-01T15:21:50;100045.84;;;8.68;53.37
9523;BME280;63165;43.016;25.784;2023-02-01T15:24:21;100052.81;;;8.63;53.13
9523;BME280;63165;43.016;25.784;2023-02-01T15:26:51;100058.13;;;8.52;53.90
9523;BME280;63165;43.016;25.784;2023-02-01T15:29:20;100056.41;;;8.50;53.68
9523;BME280;63165;43.016;25.784;2023-02-01T15:31:50;100068.59;;;8.48;53.83
9523;BME280;63165;43.016;25.784;2023-02-01T15:34:19;100011.66;;;7.88;54.33
9523;BME280;63165;43.016;25.784;2023-02-01T15:36:47;100071.31;;;8.28;54.53
9523;BME280;63165;43.016;25.784;2023-02-01T15:39:18;100065.25;;;8.24;54.21
9523;BME280;63165;43.016;25.784;2023-02-01T15:41:53;100037.59;;;8.06;54.55
9523;BME280;63165;43.016;25.784;2023-02-01T15:44:29;100066.22;;;8.11;54.08
9523;BME280;63165;43.016;25.784;2023-02-01T15:47:07;100034.19;;;7.92;53.93
9523;BME280;63165;43.016;25.784;2023-02-01T15:49:38;100065.41;;;8.04;54.28
9523;BME280;63165;43.016;25.784;2023-02-01T15:52:21;100043.78;;;7.87;54.38
9523;BME280;63165;43.016;25.784;2023-02-01T15:54:58;100062.88;;;7.87;55.10
9523;BME280;63165;43.016;25.784;2023-02-01T15:57:38;100071.56;;;7.86;54.71
9523;BME280;63165;43.016;25.784;2023-02-01T16:00:25;100072.50;;;7.70;55.39
9523;BME280;63165;43.016;25.784;2023-02-01T16:06:28;100063.91;;;7.52;54.96
9523;BME280;63165;43.016;25.784;2023-02-01T16:09:09;100079.50;;;7.63;55.47
9523;BME280;63165;43.016;25.784;2023-02-01T16:11:51;100057.06;;;7.31;55.27
9523;BME280;63165;43.016;25.784;2023-02-01T16:14:28;100056.19;;;7.34;54.86
9523;BME280;63165;43.016;25.784;2023-02-01T16:16:59;100096.03;;;7.53;54.94
9523;BME280;63165;43.016;25.784;2023-02-01T16:19:27;100083.88;;;7.50;54.50
9523;BME280;63165;43.016;25.784;2023-02-01T16:21:58;100055.28;;;7.36;54.17
9523;BME280;63165;43.016;25.784;2023-02-01T16:24:40;100057.91;;;7.32;54.62
9523;BME280;63165;43.016;25.784;2023-02-01T16:27:16;100059.66;;;7.31;54.47
9523;BME280;63165;43.016;25.784;2023-02-01T16:29:54;100084.78;;;7.42;54.82
9523;BME280;63165;43.016;25.784;2023-02-01T16:32:25;100072.66;;;7.39;54.46
9523;BME280;63165;43.016;25.784;2023-02-01T16:34:57;100078.72;;;7.27;54.58
9523;BME280;63165;43.016;25.784;2023-02-01T16:37:28;100073.56;;;7.24;54.74
9523;BME280;63165;43.016;25.784;2023-02-01T16:40:02;100076.13;;;7.29;54.65
9523;BME280;63165;43.016;25.784;2023-02-01T16:42:33;100090.88;;;7.24;54.38
9523;BME280;63165;43.016;25.784;2023-02-01T16:45:07;100073.56;;;7.19;54.61
9523;BME280;63165;43.016;25.784;2023-02-01T16:47:37;100074.44;;;7.14;54.52
9523;BME280;63165;43.016;25.784;2023-02-01T16:50:16;100066.66;;;7.03;55.06
9523;BME280;63165;43.016;25.784;2023-02-01T16:52:51;100068.44;;;6.89;55.67
9523;BME280;63165;43.016;25.784;2023-02-01T16:55:30;100051.09;;;6.71;56.12
9523;BME280;63165;43.016;25.784;2023-02-01T16:58:04;100081.44;;;6.72;56.52
9523;BME280;63165;43.016;25.784;2023-02-01T17:00:37;100068.44;;;6.56;57.43
9523;BME280;63165;43.016;25.784;2023-02-01T17:03:14;100077.09;;;6.54;57.62
9523;BME280;63165;43.016;25.784;2023-02-01T17:05:54;100084.00;;;6.39;58.09
9523;BME280;63165;43.016;25.784;2023-02-01T17:08:29;100076.22;;;6.29;58.76
9523;BME280;63165;43.016;25.784;2023-02-01T17:11:10;100077.09;;;6.15;59.30
9523;BME280;63165;43.016;25.784;2023-02-01T17:13:40;100087.44;;;6.09;59.15
9523;BME280;63165;43.016;25.784;2023-02-01T17:16:21;100077.84;;;5.94;60.06
9523;BME280;63165;43.016;25.784;2023-02-01T17:18:56;100078.69;;;5.87;59.82
9523;BME280;63165;43.016;25.784;2023-02-01T17:21:44;100084.69;;;5.72;60.43
9523;BME280;63165;43.016;25.784;2023-02-01T17:24:20;100075.16;;;5.57;60.64
9523;BME280;63165;43.016;25.784;2023-02-01T17:26:53;99964.94;;;4.74;61.08
9523;BME280;63165;43.016;25.784;2023-02-01T17:29:23;100082.84;;;5.39;60.81
9523;BME280;63165;43.016;25.784;2023-02-01T17:32:09;100086.22;;;5.24;60.91
9523;BME280;63165;43.016;25.784;2023-02-01T17:34:45;100087.00;;;5.12;61.55
9523;BME280;63165;43.016;25.784;2023-02-01T17:37:24;100080.00;;;4.99;62.30
9523;BME280;63165;43.016;25.784;2023-02-01T17:39:59;100098.16;;;4.94;62.07
9523;BME280;63165;43.016;25.784;2023-02-01T17:42:33;100100.63;;;4.82;62.40
9523;BME280;63165;43.016;25.784;2023-02-01T17:45:19;100068.56;;;4.66;62.93
9523;BME280;63165;43.016;25.784;2023-02-01T17:47:59;100088.41;;;4.64;62.73
9523;BME280;63165;43.016;25.784;2023-02-01T17:50:46;100069.97;;;4.32;63.03
9523;BME280;63165;43.016;25.784;2023-02-01T17:53:27;100097.66;;;4.34;63.05
9523;BME280;63165;43.016;25.784;2023-02-01T17:56:13;100077.56;;;4.13;63.65
9523;BME280;63165;43.016;25.784;2023-02-01T17:58:47;100023.72;;;3.77;63.99
9523;BME280;63165;43.016;25.784;2023-02-01T18:01:48;100093.13;;;4.12;64.64
9523;BME280;63165;43.016;25.784;2023-02-01T18:04:50;100099.88;;;3.99;64.64
9523;BME280;63165;43.016;25.784;2023-02-01T18:07:43;100095.50;;;3.92;64.48
9523;BME280;63165;43.016;25.784;2023-02-01T18:10:30;100075.44;;;3.74;64.90
9523;BME280;63165;43.016;25.784;2023-02-01T18:13:41;100074.44;;;3.62;65.55
9523;BME280;63165;43.016;25.784;2023-02-01T18:16:28;100093.31;;;3.52;65.95
9523;BME280;63165;43.016;25.784;2023-02-01T18:19:19;100111.41;;;3.52;66.26
9523;BME280;63165;43.016;25.784;2023-02-01T18:28:43;100122.28;;;3.28;67.38